Time;durP1;ratioP1;P1;durP2;ratioP2;P2;SDS_P1;SDS_P2;PMS_P1;PMS_P2;Temp;Humidity;BMP_temperature;BMP_pressure;BME280_temperature;BME280_humidity;BME280_pressure;Samples;Min_cycle;Max_cycle;Signal;HPM_P1;HPM_P2
2021/04/13 00:00:00;;;;;;;3.37;1.60;;;;;;;;;;10409966;28;20235;-76
2021/04/13 00:16:29;;;;;;;3.47;1.70;;;;;;;;;;10430498;28;20700;-79
2021/04/13 00:52:25;;;;;;;5.80;1.77;;;;;;;;;;9976276;22;20524;-82
2021/04/13 00:57:29;;;;;;;5.43;1.80;;;;;;;;;;10382894;28;20711;-83
2021/04/13 01:02:32;;;;;;;4.23;1.60;;;;;;;;;;10391223;28;20245;-83
2021/04/13 01:07:37;;;;;;;7.20;1.70;;;;;;;;;;10396248;28;20234;-83
2021/04/13 01:12:40;;;;;;;6.17;2.30;;;;;;;;;;10391059;28;20217;-83
2021/04/13 01:17:44;;;;;;;6.43;2.00;;;;;;;;;;10390727;28;20205;-83
2021/04/13 01:22:51;;;;;;;5.10;2.20;;;;;;;;;;10398595;28;20227;-82
2021/04/13 01:27:54;;;;;;;8.03;2.00;;;;;;;;;;10395132;28;20725;-82
2021/04/13 01:33:06;;;;;;;6.40;2.23;;;;;;;;;;10390553;28;20212;-84
2021/04/13 01:38:17;;;;;;;6.47;2.10;;;;;;;;;;10393372;28;20216;-83
2021/04/13 01:43:19;;;;;;;6.57;1.97;;;;;;;;;;10397587;28;20691;-83
2021/04/13 01:48:21;;;;;;;8.67;2.07;;;;;;;;;;10385003;28;20216;-83
2021/04/13 01:53:26;;;;;;;6.10;1.70;;;;;;;;;;10390774;28;20513;-83
2021/04/13 01:58:38;;;;;;;3.83;1.80;;;;;;;;;;10381476;28;20727;-84
2021/04/13 02:03:42;;;;;;;7.40;2.07;;;;;;;;;;10390858;28;20236;-83
2021/04/13 02:08:48;;;;;;;8.27;2.20;;;;;;;;;;10383221;28;20297;-82
2021/04/13 02:13:53;;;;;;;7.47;1.90;;;;;;;;;;10384047;28;20220;-82
2021/04/13 02:18:55;;;;;;;5.33;1.93;;;;;;;;;;10384050;28;20251;-82
2021/04/13 02:24:07;;;;;;;7.13;1.93;;;;;;;;;;10392613;28;20230;-83
2021/04/13 02:29:09;;;;;;;6.67;2.20;;;;;;;;;;10378505;28;20583;-81
2021/04/13 02:34:12;;;;;;;6.93;1.83;;;;;;;;;;10391521;28;20219;-82
2021/04/13 02:39:16;;;;;;;6.43;1.90;;;;;;;;;;10380028;28;20244;-82
2021/04/13 02:44:21;;;;;;;5.83;1.90;;;;;;;;;;10382870;28;20213;-82
2021/04/13 02:49:24;;;;;;;6.27;1.97;;;;;;;;;;10381565;28;20604;-82
2021/04/13 02:54:29;;;;;;;9.47;2.10;;;;;;;;;;10382418;28;20590;-82
2021/04/13 02:59:34;;;;;;;8.87;2.37;;;;;;;;;;10381625;28;20700;-81
2021/04/13 03:04:36;;;;;;;7.83;2.10;;;;;;;;;;10381279;28;20255;-80
2021/04/13 03:09:40;;;;;;;6.23;1.77;;;;;;;;;;10383102;28;20271;-81
2021/04/13 03:14:47;;;;;;;7.60;2.10;;;;;;;;;;10378715;28;20654;-80
2021/04/13 03:19:51;;;;;;;5.93;2.13;;;;;;;;;;10383025;28;20729;-80
2021/04/13 03:24:54;;;;;;;6.80;2.07;;;;;;;;;;10378164;28;20216;-80
2021/04/13 03:29:59;;;;;;;8.17;2.07;;;;;;;;;;10384309;28;20212;-81
2021/04/13 03:35:02;;;;;;;5.57;2.00;;;;;;;;;;10378171;28;20222;-80
2021/04/13 03:40:06;;;;;;;6.07;2.00;;;;;;;;;;10382684;28;20236;-80
2021/04/13 03:45:08;;;;;;;7.00;2.10;;;;;;;;;;10375864;28;21242;-80
2021/04/13 03:50:15;;;;;;;9.17;2.30;;;;;;;;;;10382280;28;20863;-81
2021/04/13 03:55:19;;;;;;;11.03;2.43;;;;;;;;;;10384125;28;20331;-88
2021/04/13 04:00:22;;;;;;;5.23;2.00;;;;;;;;;;10386006;28;20232;-78
2021/04/13 04:05:25;;;;;;;5.13;2.00;;;;;;;;;;10385631;28;20261;-77
2021/04/13 04:10:32;;;;;;;9.17;2.23;;;;;;;;;;10373886;28;20215;-79
2021/04/13 04:15:38;;;;;;;5.23;2.03;;;;;;;;;;10380868;28;20223;-78
2021/04/13 04:20:39;;;;;;;7.57;2.00;;;;;;;;;;10372488;28;20647;-79
2021/04/13 04:25:45;;;;;;;8.27;2.53;;;;;;;;;;10371314;28;20220;-80
2021/04/13 04:30:47;;;;;;;6.53;2.13;;;;;;;;;;10362439;28;20219;-79
2021/04/13 04:35:50;;;;;;;6.43;2.10;;;;;;;;;;10372881;28;20582;-79
2021/04/13 04:40:57;;;;;;;4.90;2.20;;;;;;;;;;10365362;28;20266;-78
2021/04/13 04:45:59;;;;;;;5.50;2.20;;;;;;;;;;10363651;28;20598;-78
2021/04/13 04:51:04;;;;;;;10.10;2.10;;;;;;;;;;10363037;28;20217;-78
2021/04/13 04:56:09;;;;;;;4.87;1.80;;;;;;;;;;10373036;28;20224;-79
2021/04/13 05:01:14;;;;;;;9.47;2.43;;;;;;;;;;10359617;28;20289;-77
2021/04/13 05:06:17;;;;;;;5.73;2.10;;;;;;;;;;10372809;28;20701;-76
2021/04/13 05:11:20;;;;;;;6.57;2.30;;;;;;;;;;10367108;28;20220;-77
2021/04/13 05:16:25;;;;;;;7.63;2.23;;;;;;;;;;10367812;28;20213;-76
2021/04/13 05:21:27;;;;;;;8.90;1.90;;;;;;;;;;10373493;28;20607;-76
2021/04/13 05:26:29;;;;;;;8.33;2.40;;;;;;;;;;10377223;28;20217;-77
2021/04/13 05:31:31;;;;;;;6.27;2.33;;;;;;;;;;10370637;28;20216;-76
2021/04/13 05:36:33;;;;;;;7.23;2.40;;;;;;;;;;10375394;28;20700;-76
2021/04/13 05:41:36;;;;;;;7.70;2.07;;;;;;;;;;10369166;28;20236;-76
2021/04/13 05:46:39;;;;;;;7.87;2.20;;;;;;;;;;10369494;28;20221;-76
2021/04/13 05:51:41;;;;;;;9.93;2.63;;;;;;;;;;10378691;28;20624;-76
2021/04/13 05:56:44;;;;;;;6.00;2.17;;;;;;;;;;10377549;28;20213;-77
2021/04/13 06:01:48;;;;;;;10.93;2.60;;;;;;;;;;10377495;28;20232;-75
2021/04/13 06:06:51;;;;;;;8.30;2.50;;;;;;;;;;10374086;28;20607;-76
2021/04/13 06:11:53;;;;;;;10.10;2.73;;;;;;;;;;10369772;28;20212;-77
2021/04/13 06:16:55;;;;;;;8.23;2.60;;;;;;;;;;10367269;28;20239;-76
2021/04/13 06:21:57;;;;;;;8.63;2.10;;;;;;;;;;10376899;28;20240;-76
2021/04/13 06:27:00;;;;;;;6.47;2.60;;;;;;;;;;10366372;28;20676;-77
2021/04/13 06:32:07;;;;;;;6.43;2.17;;;;;;;;;;10363856;28;20212;-76
2021/04/13 06:37:10;;;;;;;7.27;2.37;;;;;;;;;;10375390;28;20220;-76
2021/04/13 06:42:18;;;;;;;6.47;2.30;;;;;;;;;;10371742;28;20236;-76
2021/04/13 06:47:23;;;;;;;8.30;2.00;;;;;;;;;;10376960;28;20211;-77
2021/04/13 06:52:31;;;;;;;6.53;2.50;;;;;;;;;;10371972;28;20217;-76
2021/04/13 06:57:46;;;;;;;7.10;2.70;;;;;;;;;;10370454;28;20240;-78
2021/04/13 07:02:51;;;;;;;9.23;2.90;;;;;;;;;;10352277;28;20246;-76
2021/04/13 07:07:58;;;;;;;12.70;2.80;;;;;;;;;;10367489;28;21406;-76
2021/04/13 07:13:05;;;;;;;7.47;2.33;;;;;;;;;;10364307;28;20221;-77
2021/04/13 07:18:09;;;;;;;9.83;2.33;;;;;;;;;;10368756;28;20339;-78
2021/04/13 07:23:15;;;;;;;7.73;2.00;;;;;;;;;;10374541;28;20243;-76
2021/04/13 07:28:20;;;;;;;9.30;2.10;;;;;;;;;;10370649;28;20220;-77
2021/04/13 07:33:27;;;;;;;10.23;2.53;;;;;;;;;;10373613;28;20226;-77
2021/04/13 07:38:30;;;;;;;9.27;2.00;;;;;;;;;;10361209;28;20318;-76
2021/04/13 07:43:36;;;;;;;6.13;2.20;;;;;;;;;;10362105;28;20723;-76
2021/04/13 07:48:43;;;;;;;5.20;2.10;;;;;;;;;;10368090;28;20213;-77
2021/04/13 07:53:51;;;;;;;5.77;1.60;;;;;;;;;;10367856;28;20216;-75
2021/04/13 07:58:57;;;;;;;7.37;1.70;;;;;;;;;;10348375;28;20666;-76
2021/04/13 08:03:59;;;;;;;6.93;1.63;;;;;;;;;;10368154;28;20255;-77
2021/04/13 08:09:22;;;;;;;9.40;1.80;;;;;;;;;;10362143;28;20221;-76
2021/04/13 08:14:29;;;;;;;4.93;1.70;;;;;;;;;;10337044;28;20795;-76
2021/04/13 08:19:32;;;;;;;8.00;2.00;;;;;;;;;;10369271;28;20232;-75
2021/04/13 08:24:35;;;;;;;5.43;1.80;;;;;;;;;;10370306;28;20526;-76
2021/04/13 08:29:43;;;;;;;6.07;1.80;;;;;;;;;;10372097;28;20251;-77
2021/04/13 08:34:51;;;;;;;5.53;1.97;;;;;;;;;;10372243;28;20515;-76
2021/04/13 08:40:07;;;;;;;6.17;1.67;;;;;;;;;;10366378;28;20733;-76
2021/04/13 08:45:16;;;;;;;9.13;1.90;;;;;;;;;;10364103;28;20243;-76
2021/04/13 08:50:20;;;;;;;4.63;1.57;;;;;;;;;;10364195;28;20623;-78
2021/04/13 08:55:29;;;;;;;4.40;1.67;;;;;;;;;;10372571;28;20212;-76
2021/04/13 09:00:45;;;;;;;8.87;1.77;;;;;;;;;;10375949;28;20843;-77
2021/04/13 09:05:48;;;;;;;3.90;1.67;;;;;;;;;;10372597;28;20341;-76
2021/04/13 09:11:04;;;;;;;3.70;1.50;;;;;;;;;;10377580;28;20223;-76
2021/04/13 09:16:15;;;;;;;6.40;1.70;;;;;;;;;;10374384;28;20208;-77
2021/04/13 09:21:31;;;;;;;5.63;1.60;;;;;;;;;;10372395;28;20371;-77
2021/04/13 09:26:40;;;;;;;6.67;1.87;;;;;;;;;;10372102;28;20216;-76
2021/04/13 09:31:46;;;;;;;4.17;1.57;;;;;;;;;;10378386;28;20212;-75
2021/04/13 09:36:58;;;;;;;2.63;1.53;;;;;;;;;;10375898;28;21026;-77
2021/04/13 09:42:07;;;;;;;9.00;1.70;;;;;;;;;;10366063;28;20796;-77
2021/04/13 09:47:15;;;;;;;3.20;1.57;;;;;;;;;;10372193;28;20210;-76
2021/04/13 09:52:25;;;;;;;5.33;1.50;;;;;;;;;;10379583;28;20242;-76
2021/04/13 09:57:47;;;;;;;4.87;1.60;;;;;;;;;;10372678;28;20279;-77
2021/04/13 10:03:01;;;;;;;3.50;1.57;;;;;;;;;;10377232;28;20238;-76
2021/04/13 10:08:08;;;;;;;3.27;1.63;;;;;;;;;;10373345;28;20587;-76
2021/04/13 10:13:22;;;;;;;3.97;1.40;;;;;;;;;;10365481;28;20719;-77
2021/04/13 10:18:43;;;;;;;4.07;1.47;;;;;;;;;;10378252;28;20220;-76
2021/04/13 10:23:59;;;;;;;4.53;1.50;;;;;;;;;;10374445;28;20331;-77
2021/04/13 10:29:19;;;;;;;3.93;1.40;;;;;;;;;;10368163;28;20216;-76
2021/04/13 10:34:41;;;;;;;2.20;1.30;;;;;;;;;;10369035;28;20290;-75
2021/04/13 10:39:44;;;;;;;4.40;1.50;;;;;;;;;;10375118;28;20224;-76
2021/04/13 10:45:04;;;;;;;2.37;1.40;;;;;;;;;;10373978;28;20212;-77
2021/04/13 10:50:18;;;;;;;4.07;1.60;;;;;;;;;;10370659;28;20208;-76
2021/04/13 10:55:43;;;;;;;3.87;1.50;;;;;;;;;;10371506;28;20219;-76
2021/04/13 11:01:03;;;;;;;4.20;1.40;;;;;;;;;;10351778;28;20705;-76
2021/04/13 11:06:23;;;;;;;5.67;1.50;;;;;;;;;;10367293;28;20211;-78
2021/04/13 11:11:42;;;;;;;3.00;1.60;;;;;;;;;;10366890;28;20216;-77
2021/04/13 11:17:22;;;;;;;4.33;1.40;;;;;;;;;;10376848;28;20431;-76
2021/04/13 11:22:38;;;;;;;3.67;1.50;;;;;;;;;;10204314;28;20242;-76
2021/04/13 11:28:04;;;;;;;4.77;1.50;;;;;;;;;;10318986;28;20307;-77
2021/04/13 11:33:25;;;;;;;3.40;1.60;;;;;;;;;;10294720;28;20227;-75
2021/04/13 11:38:36;;;;;;;5.27;1.60;;;;;;;;;;10364974;28;20216;-76
2021/04/13 11:43:39;;;;;;;4.53;1.77;;;;;;;;;;10374437;28;20232;-76
2021/04/13 11:48:44;;;;;;;3.73;1.57;;;;;;;;;;10364248;28;20213;-76
2021/04/13 11:53:48;;;;;;;4.50;1.70;;;;;;;;;;10369809;28;20220;-77
2021/04/13 11:59:07;;;;;;;4.97;1.70;;;;;;;;;;10370197;28;20299;-74
2021/04/13 12:04:11;;;;;;;3.07;1.80;;;;;;;;;;10375109;28;20239;-76
2021/04/13 12:09:33;;;;;;;4.03;1.50;;;;;;;;;;10371350;28;20219;-77
2021/04/13 12:14:43;;;;;;;2.63;1.40;;;;;;;;;;10366666;28;20216;-76
2021/04/13 12:20:00;;;;;;;4.77;1.70;;;;;;;;;;10368638;28;20224;-76
2021/04/13 12:25:01;;;;;;;5.87;1.53;;;;;;;;;;10350493;28;20216;-76
2021/04/13 12:30:22;;;;;;;2.47;1.50;;;;;;;;;;10371057;28;20220;-75
2021/04/13 12:35:38;;;;;;;4.97;1.87;;;;;;;;;;10366759;28;20247;-77
2021/04/13 12:40:41;;;;;;;3.83;1.50;;;;;;;;;;10370668;28;20276;-77
2021/04/13 12:45:47;;;;;;;6.20;2.23;;;;;;;;;;10366291;28;20668;-77
2021/04/13 12:50:52;;;;;;;3.40;1.47;;;;;;;;;;10373907;28;20583;-77
2021/04/13 12:56:02;;;;;;;4.00;1.80;;;;;;;;;;10372210;28;20227;-76
2021/04/13 13:01:06;;;;;;;8.23;2.17;;;;;;;;;;10370133;28;20240;-75
2021/04/13 13:06:12;;;;;;;4.00;2.00;;;;;;;;;;10371039;28;20653;-76
2021/04/13 13:11:17;;;;;;;3.20;1.60;;;;;;;;;;10371503;28;20682;-75
2021/04/13 13:16:22;;;;;;;3.73;1.80;;;;;;;;;;10362008;28;20236;-76
2021/04/13 13:21:26;;;;;;;4.13;2.20;;;;;;;;;;10369359;28;20244;-76
2021/04/13 13:26:30;;;;;;;2.87;1.83;;;;;;;;;;10350869;28;20364;-76
2021/04/13 13:31:34;;;;;;;3.50;1.70;;;;;;;;;;10358239;28;20503;-76
2021/04/13 13:36:39;;;;;;;2.60;1.57;;;;;;;;;;10369399;28;20220;-78
2021/04/13 13:41:43;;;;;;;3.90;1.73;;;;;;;;;;10370547;28;20231;-77
2021/04/13 13:46:56;;;;;;;5.17;1.60;;;;;;;;;;10354019;28;20406;-76
2021/04/13 13:52:02;;;;;;;4.47;1.93;;;;;;;;;;10374212;28;20209;-77
2021/04/13 13:57:11;;;;;;;7.03;1.83;;;;;;;;;;10373730;28;20468;-77
2021/04/13 14:02:22;;;;;;;5.43;2.17;;;;;;;;;;10366460;28;20251;-76
2021/04/13 14:07:31;;;;;;;4.17;1.97;;;;;;;;;;10373686;28;20216;-77
2021/04/13 14:12:34;;;;;;;2.40;1.70;;;;;;;;;;10372114;28;20212;-76
2021/04/13 14:17:37;;;;;;;4.03;2.10;;;;;;;;;;10371538;28;20216;-78
2021/04/13 14:22:39;;;;;;;3.80;1.77;;;;;;;;;;10377465;28;20236;-77
2021/04/13 14:27:42;;;;;;;6.20;1.90;;;;;;;;;;10373218;28;20223;-77
2021/04/13 14:32:44;;;;;;;3.13;1.83;;;;;;;;;;10379022;28;20693;-78
2021/04/13 14:37:46;;;;;;;3.17;1.73;;;;;;;;;;10374355;28;20248;-77
2021/04/13 14:42:49;;;;;;;4.37;1.73;;;;;;;;;;10371970;28;20507;-78
2021/04/13 14:47:53;;;;;;;2.77;1.43;;;;;;;;;;10370916;28;20215;-76
2021/04/13 14:52:55;;;;;;;7.00;1.80;;;;;;;;;;10355529;28;20224;-76
2021/04/13 14:57:59;;;;;;;3.63;2.10;;;;;;;;;;10368211;28;20254;-78
2021/04/13 15:03:02;;;;;;;5.23;1.77;;;;;;;;;;10373851;28;20262;-77
2021/04/13 15:08:04;;;;;;;5.60;2.10;;;;;;;;;;10367732;28;20225;-77
2021/04/13 15:13:07;;;;;;;3.53;1.80;;;;;;;;;;10373202;28;21953;-74
2021/04/13 15:18:12;;;;;;;4.40;1.80;;;;;;;;;;10374602;28;20573;-76
2021/04/13 15:23:15;;;;;;;3.30;1.80;;;;;;;;;;10367501;28;20232;-78
2021/04/13 15:28:17;;;;;;;4.70;1.70;;;;;;;;;;10359345;28;20220;-76
2021/04/13 15:33:24;;;;;;;2.73;1.97;;;;;;;;;;10370596;28;20212;-77
2021/04/13 15:38:26;;;;;;;4.20;2.10;;;;;;;;;;10378056;28;20592;-77
2021/04/13 15:43:33;;;;;;;3.90;1.90;;;;;;;;;;10364332;28;20440;-76
2021/04/13 15:48:39;;;;;;;4.93;2.33;;;;;;;;;;10371711;28;20281;-77
2021/04/13 15:53:41;;;;;;;5.37;2.30;;;;;;;;;;10365435;28;20212;-77
2021/04/13 15:58:44;;;;;;;4.47;2.40;;;;;;;;;;10362914;28;20535;-77
2021/04/13 16:03:52;;;;;;;3.60;2.23;;;;;;;;;;10369255;28;20323;-79
2021/04/13 16:08:54;;;;;;;3.50;2.43;;;;;;;;;;10366761;28;20205;-77
2021/04/13 16:13:56;;;;;;;4.17;2.20;;;;;;;;;;10371702;28;20235;-77
2021/04/13 16:18:59;;;;;;;2.30;2.00;;;;;;;;;;10369514;28;20216;-76
2021/04/13 16:24:01;;;;;;;4.87;2.50;;;;;;;;;;10363583;28;20237;-77
2021/04/13 16:29:04;;;;;;;6.70;3.20;;;;;;;;;;10364318;28;20208;-78
2021/04/13 16:34:08;;;;;;;4.57;2.50;;;;;;;;;;10371260;28;20220;-76
2021/04/13 16:39:17;;;;;;;3.83;2.60;;;;;;;;;;10361556;28;20703;-78
2021/04/13 16:44:22;;;;;;;7.47;2.90;;;;;;;;;;10371429;28;20321;-79
2021/04/13 16:49:27;;;;;;;6.63;3.30;;;;;;;;;;10367938;28;20222;-76
2021/04/13 16:54:29;;;;;;;5.10;2.90;;;;;;;;;;10368176;28;20235;-76
2021/04/13 16:59:32;;;;;;;4.77;2.30;;;;;;;;;;10366074;28;20216;-77
2021/04/13 17:04:40;;;;;;;3.83;2.50;;;;;;;;;;10355919;28;20247;-77
2021/04/13 17:09:45;;;;;;;4.78;2.40;;;;;;;;;;10369609;28;20469;-81
2021/04/13 17:14:53;;;;;;;5.33;2.30;;;;;;;;;;10362377;28;20224;-78
2021/04/13 17:19:56;;;;;;;6.03;2.93;;;;;;;;;;10377731;28;20217;-78
2021/04/13 17:25:00;;;;;;;4.33;2.50;;;;;;;;;;10369594;28;20401;-79
2021/04/13 17:30:05;;;;;;;4.80;2.80;;;;;;;;;;10366857;28;20973;-79
2021/04/13 17:35:09;;;;;;;4.50;2.43;;;;;;;;;;10365349;28;20724;-80
2021/04/13 17:40:12;;;;;;;3.97;2.17;;;;;;;;;;10375664;28;20572;-79
2021/04/13 17:45:16;;;;;;;3.60;2.10;;;;;;;;;;10371028;28;20251;-88
2021/04/13 17:50:20;;;;;;;3.37;2.10;;;;;;;;;;10369497;28;20216;-77
2021/04/13 17:55:25;;;;;;;4.47;2.10;;;;;;;;;;10360362;28;20212;-80
2021/04/13 18:00:27;;;;;;;3.87;1.97;;;;;;;;;;10376435;28;20481;-79
2021/04/13 18:05:32;;;;;;;2.83;1.80;;;;;;;;;;10371083;28;20705;-79
2021/04/13 18:10:35;;;;;;;4.07;2.03;;;;;;;;;;10378224;28;20227;-78
2021/04/13 18:15:40;;;;;;;4.57;1.93;;;;;;;;;;10370845;28;20212;-79
2021/04/13 18:20:44;;;;;;;4.03;2.27;;;;;;;;;;10371186;28;20238;-78
2021/04/13 18:25:49;;;;;;;3.60;2.00;;;;;;;;;;10371723;28;20318;-79
2021/04/13 18:30:53;;;;;;;3.20;2.10;;;;;;;;;;10361026;28;20246;-77
2021/04/13 18:35:58;;;;;;;3.73;2.07;;;;;;;;;;10373407;28;20229;-77
2021/04/13 18:41:02;;;;;;;4.83;1.90;;;;;;;;;;10369320;28;20243;-78
2021/04/13 18:46:07;;;;;;;3.90;2.20;;;;;;;;;;10364703;28;20215;-78
2021/04/13 18:51:20;;;;;;;3.37;2.40;;;;;;;;;;10366327;28;20215;-79
2021/04/13 18:56:25;;;;;;;3.33;2.00;;;;;;;;;;10374830;28;20303;-79
2021/04/13 19:01:30;;;;;;;3.73;1.80;;;;;;;;;;10363161;28;20529;-79
2021/04/13 19:06:39;;;;;;;5.27;1.93;;;;;;;;;;10368284;28;20216;-78
2021/04/13 19:11:44;;;;;;;4.03;2.43;;;;;;;;;;10367171;28;20216;-78
2021/04/13 19:16:47;;;;;;;4.53;2.00;;;;;;;;;;10363025;28;20216;-78
2021/04/13 19:21:53;;;;;;;3.63;1.90;;;;;;;;;;10373071;28;20260;-79
2021/04/13 19:26:57;;;;;;;3.80;1.93;;;;;;;;;;10362412;28;20223;-77
2021/04/13 19:32:05;;;;;;;3.43;2.10;;;;;;;;;;10366822;28;20220;-79
2021/04/13 19:37:13;;;;;;;4.50;2.60;;;;;;;;;;10364560;28;20692;-79
2021/04/13 19:42:21;;;;;;;7.87;3.20;;;;;;;;;;10363474;28;20220;-78
2021/04/13 19:47:25;;;;;;;8.27;3.70;;;;;;;;;;10370225;28;20310;-78
2021/04/13 19:52:31;;;;;;;6.77;3.53;;;;;;;;;;10374351;28;20223;-79
2021/04/13 19:57:33;;;;;;;7.23;3.50;;;;;;;;;;10348799;28;20208;-77
2021/04/13 20:02:38;;;;;;;9.63;3.90;;;;;;;;;;10372751;28;20243;-79
2021/04/13 20:07:55;;;;;;;5.53;2.83;;;;;;;;;;10350155;28;20304;-78
2021/04/13 20:12:58;;;;;;;3.57;2.40;;;;;;;;;;10368321;28;20227;-79
2021/04/13 20:18:03;;;;;;;4.53;2.10;;;;;;;;;;10368857;28;20735;-78
2021/04/13 20:23:12;;;;;;;6.70;2.00;;;;;;;;;;10366288;28;20235;-78
2021/04/13 20:28:18;;;;;;;8.67;2.00;;;;;;;;;;10369543;28;20580;-77
2021/04/13 20:33:26;;;;;;;5.53;2.47;;;;;;;;;;10370345;28;20210;-77
2021/04/13 20:38:31;;;;;;;4.57;2.30;;;;;;;;;;10371674;28;20219;-79
2021/04/13 20:43:39;;;;;;;4.47;2.10;;;;;;;;;;10373513;28;20242;-78
2021/04/13 20:48:44;;;;;;;5.43;2.40;;;;;;;;;;10372701;28;20205;-80
2021/04/13 20:53:54;;;;;;;4.47;2.23;;;;;;;;;;10373062;28;20216;-79
2021/04/13 20:58:58;;;;;;;3.80;2.47;;;;;;;;;;10380866;28;21074;-78
2021/04/13 21:04:03;;;;;;;4.40;2.27;;;;;;;;;;10376692;28;20271;-79
2021/04/13 21:09:08;;;;;;;3.87;2.33;;;;;;;;;;10371826;28;20647;-78
2021/04/13 21:14:10;;;;;;;4.07;2.13;;;;;;;;;;10377903;28;20212;-79
2021/04/13 21:19:16;;;;;;;3.87;2.20;;;;;;;;;;10382424;28;20565;-79
2021/04/13 21:24:20;;;;;;;4.40;2.00;;;;;;;;;;10377048;28;20314;-79
2021/04/13 21:29:24;;;;;;;3.70;2.10;;;;;;;;;;10361434;28;20659;-78
2021/04/13 21:34:29;;;;;;;4.07;2.20;;;;;;;;;;10375334;28;20465;-79
2021/04/13 21:39:33;;;;;;;3.33;2.30;;;;;;;;;;10380511;28;20434;-80
2021/04/13 21:44:37;;;;;;;4.23;2.33;;;;;;;;;;10384012;28;20470;-80
2021/04/13 21:49:41;;;;;;;3.83;2.70;;;;;;;;;;10381659;28;20224;-78
2021/04/13 21:54:44;;;;;;;4.27;2.40;;;;;;;;;;10379840;28;20579;-78
2021/04/13 21:59:50;;;;;;;4.83;2.30;;;;;;;;;;10386848;28;20665;-79
2021/04/13 22:04:55;;;;;;;3.47;2.33;;;;;;;;;;10379564;28;20232;-79
2021/04/13 22:10:01;;;;;;;4.70;2.33;;;;;;;;;;10390322;28;20217;-79
2021/04/13 22:15:05;;;;;;;5.40;2.13;;;;;;;;;;10375501;28;20799;-79
2021/04/13 22:20:08;;;;;;;3.73;2.57;;;;;;;;;;10383180;28;20243;-79
2021/04/13 22:25:15;;;;;;;5.27;2.83;;;;;;;;;;10375834;28;20753;-79
2021/04/13 22:30:19;;;;;;;6.30;2.77;;;;;;;;;;10370903;28;20216;-79
2021/04/13 22:35:24;;;;;;;6.23;2.87;;;;;;;;;;10380587;28;20366;-78
2021/04/13 22:40:42;;;;;;;6.50;3.03;;;;;;;;;;10386262;28;20216;-79
2021/04/13 22:45:46;;;;;;;4.93;2.97;;;;;;;;;;10382729;28;20721;-80
2021/04/13 22:50:48;;;;;;;8.27;3.20;;;;;;;;;;10383969;28;20577;-79
2021/04/13 22:55:55;;;;;;;4.30;3.10;;;;;;;;;;10376851;28;20599;-79
2021/04/13 23:00:58;;;;;;;4.23;2.90;;;;;;;;;;10378149;28;20247;-80
2021/04/13 23:06:01;;;;;;;6.20;3.07;;;;;;;;;;10379241;28;20223;-79
2021/04/13 23:11:05;;;;;;;5.60;3.27;;;;;;;;;;10383542;28;20250;-79
2021/04/13 23:16:07;;;;;;;6.67;3.23;;;;;;;;;;10386286;28;20607;-80
2021/04/13 23:21:09;;;;;;;5.23;3.20;;;;;;;;;;10380216;28;20250;-79
2021/04/13 23:26:11;;;;;;;7.07;3.87;;;;;;;;;;10384403;28;20231;-78
2021/04/13 23:31:14;;;;;;;7.27;3.77;;;;;;;;;;10376378;28;20547;-79
2021/04/13 23:36:16;;;;;;;7.57;3.87;;;;;;;;;;10383646;28;20588;-78
2021/04/13 23:41:19;;;;;;;5.60;3.73;;;;;;;;;;10381394;28;20287;-79
2021/04/13 23:46:21;;;;;;;7.37;3.77;;;;;;;;;;10381294;28;20371;-79
2021/04/13 23:51:23;;;;;;;6.47;4.13;;;;;;;;;;10379735;28;20224;-78
2021/04/13 23:56:26;;;;;;;7.10;3.77;;;;;;;;;;10379341;28;20733;-78
